Observations for MILANO MALPENSA, Italy (LIMC)

LIMC 100220Z 36009KT CAVOK 05/01 Q1014 NOSIG
LIMC 100150Z 34007KT CAVOK 03/01 Q1014 NOSIG
LIMC 100050Z 34007KT CAVOK 05/02 Q1013 NOSIG
LIMC 100020Z 36006KT 340V040 CAVOK 02/00 Q1013 NOSIG
LIMC 092350Z 01006KT 360V070 CAVOK 03/00 Q1013 NOSIG
LIMC 092320Z 36006KT CAVOK 04/01 Q1013 NOSIG
LIMC 092250Z 01008KT CAVOK 03/00 Q1012 NOSIG
LIMC 092220Z 35006KT CAVOK 06/01 Q1012 NOSIG
LIMC 092150Z 03006KT CAVOK 05/01 Q1011 NOSIG
LIMC 092120Z 03004KT 340V070 CAVOK 05/00 Q1011 NOSIG
LIMC 092050Z 01006KT CAVOK 05/00 Q1011 NOSIG
LIMC 092020Z 01007KT 350V050 CAVOK 04/M00 Q1011 NOSIG   
LIMC 091950Z VRB04KT CAVOK 06/01 Q1011 NOSIG
LIMC 091920Z 03004KT 320V110 CAVOK 05/01 Q1011 NOSIG
LIMC 091850Z 03005KT 340V090 CAVOK 04/01 Q1010 NOSIG
LIMC 091820Z 35005KT CAVOK 07/02 Q1010 NOSIG
LIMC 091750Z 03006KT CAVOK 05/01 Q1009 NOSIG
LIMC 091720Z 26005KT 220V310 CAVOK 07/01 Q1008 NOSIG
LIMC 091650Z 19005KT 120V270 CAVOK 09/02 Q1009 NOSIG
LIMC 091620Z 26012KT CAVOK 11/02 Q1009 NOSIG
LIMC 091550Z 26009KT CAVOK 11/03 Q1009 NOSIG
LIMC 091520Z 26003KT 210V300 CAVOK 14/02 Q1008 NOSIG
LIMC 091450Z 28005KT CAVOK 14/02 Q1008 NOSIG
LIMC 091420Z 30006KT CAVOK 14/02 Q1008 NOSIG
LIMC 091350Z 33007KT CAVOK 14/02 Q1008 NOSIG
LIMC 091320Z 33006KT 300V010 CAVOK 13/02 Q1008 NOSIG
LIMC 091250Z 26008KT CAVOK 12/02 Q1008 NOSIG
LIMC 091220Z 30007KT 270V330 CAVOK 12/01 Q1008 NOSIG
LIMC 091150Z 29004KT 260V340 CAVOK 11/01 Q1007 NOSIG
LIMC 091120Z 26006KT 240V340 CAVOK 11/01 Q1007 NOSIG
LIMC 091050Z 35004KT 270V050 CAVOK 10/00 Q1007 NOSIG
LIMC 091020Z 12005KT 080V140 CAVOK 09/01 Q1007 NOSIG
LIMC 090950Z 19006KT 120V250 CAVOK 09/M00 Q1007 NOSIG   
LIMC 090920Z 35004KT CAVOK 07/M00 Q1009 NOSIG   
LIMC 090850Z 36003KT 290V020 CAVOK 05/01 Q1008 NOSIG
LIMC 090820Z VRB01KT CAVOK 03/M00 Q1007 NOSIG   
LIMC 090750Z VRB02KT CAVOK 01/M02 Q1007 NOSIG   
LIMC 090720Z 02006KT CAVOK 01/M01 Q1007 NOSIG   
LIMC 090650Z 01005KT CAVOK 01/M02 Q1007 NOSIG   
LIMC 090620Z 06006KT CAVOK 02/M01 Q1008 NOSIG   
LIMC 090550Z 07006KT CAVOK 00/M01 Q1007 NOSIG   
LIMC 090520Z 04004KT CAVOK M01/M03 Q1008 NOSIG  
LIMC 090450Z VRB02KT CAVOK M00/M03 Q1008 NOSIG  
LIMC 090420Z 01006KT CAVOK M01/M03 Q1009 NOSIG  
LIMC 090350Z VRB02KT CAVOK M01/M03 Q1009 NOSIG  
LIMC 090320Z 01003KT 340V070 CAVOK M01/M03 Q1010 NOSIG  
LIMC 090250Z 01003KT CAVOK 00/M03 Q1011 NOSIG   
LIMC 090220Z 12004KT 090V250 CAVOK 00/M03 Q1011 NOSIG   
LIMC 090150Z 04003KT CAVOK 03/M02 Q1011 NOSIG